首页
METAR-TAF:

METAR-TAF

机场 :

科隆/波恩機場

科隆, 德国

纬度: 50-52N, 经度: 007-10E, 海拔: 91米

当前天气观测

该预报发布于42分钟前的02:20 UTC
风速3节,风向,在东转东北东南之间变化
温度 2°C
湿度 93%
气压 1012 hPa
能見度: 6000

METAR: EDDK 170220Z 09003KT 060V140 6000 NSC 02/01 Q1012 NOSIG

时间: 04:02 (03:02 UTC)

预报

该预报发布于4小时和2分钟前的23:00 UTC
预报有效从17日的 00点(UTC)到 18日的 06点(UTC)
风速5节,风向东南
能见度10公里或以上
1500米以下无云,无积雨云
成为
从 17日的 02点(UTC)到 17日的 05点(UTC)
风速3节,风向多变
短暂存在
从 17日的 03点(UTC)到 17日的 10点(UTC)
能見度: 3000
碎片雾
几率 30% :
短暂存在
从 17日的 06点(UTC)到 17日的 10点(UTC)
多云层高于800英尺
成为
从 17日的 10点(UTC)到 17日的 13点(UTC)
风速7节,风向北转西北
成为
从 17日的 18点(UTC)到 17日的 22点(UTC)
多云层高于1400英尺
短暂存在
从 17日的 21点(UTC)到 18日的 06点(UTC)
能見度: 4000
多云层高于800英尺
雨, 毛毛雨

TAF: EDDK 162300Z 1700/1806 13005KT CAVOK BECMG 1702/1705 VRB03KT TEMPO 1703/1710 3000 BCFG PROB30 TEMPO 1706/1710 BKN008 BECMG 1710/1713 34007KT BECMG 1718/1722 RA BKN014 TEMPO 1721/1806 4000 RADZ BKN008

超过4000个机场的气象观测和天气预报(METAR&TAF报告)。

可查询的气象台以黄色和红色小点在地图上表示。

将鼠标移到小点上方,可查看气象台名称。

然后点击查看天气观测和预报。

如需切换地图:点击带黑十字的绿色按钮放大地图;点击带横线的绿色按钮缩小地图;或者点击绿色箭头查看邻近地区的地图。


METAR-TAF: